Flight Track Log - Related Links

Times and Time Zones

All times are in EST time to prevent confusion due to time zone crossing. See the UAL1717 flight status page for this flight to view local times or setup timezone preferences in your user account.

Time Position Orientation Groundspeed Altitude Reporting Facility
EST Latitude Longitude Course Direction KTS MPH feet Rate Location/Type
Wed 04:47:49 PM 28.4500 -81.3167 270° West 168 193 1,000  Level Orlando TRACON
Wed 04:48:49 PM 28.5000 -81.3167 360° North 206 237 2,900 2,033 Climbing Orlando TRACON
Wed 04:49:50 PM 28.5833 -81.3333 350° North 289 333 5,100 1,673 Climbing Orlando TRACON
Wed 04:51:00 PM 28.6907 -81.7073 270° West  Level Estimated
Wed 04:52:00 PM 28.7558 -81.8071 270° West  Level Estimated
Wed 04:52:17 PM 28.5642 -81.5239 264° West 292 336 8,700  Level Jacksonville Center
Wed 04:53:17 PM 28.5422 -81.6142 255° West 298 343 11,700 2,000 Climbing Jacksonville Center
Wed 04:54:17 PM 28.5203 -81.7136 256° West 310 357 12,700 1,100 Climbing Jacksonville Center
Wed 04:55:17 PM 28.4961 -81.8272 256° West 343 395 13,900 1,400 Climbing Jacksonville Center
Wed 04:56:17 PM 28.4678 -81.9550 256° West 387 445 15,500 1,800 Climbing Jacksonville Center
Wed 04:57:17 PM 28.4397 -82.0994 258° West 407 468 17,500 1,750 Climbing Jacksonville Center
Wed 04:58:17 PM 28.4467 -82.2386 273° West 436 502 19,000 1,400 Climbing Jacksonville Center
Wed 04:59:17 PM 28.4578 -82.3778 275° West 441 507 20,300 1,350 Climbing Jacksonville Center
Wed 05:00:17 PM 28.5353 -82.5003 306° West 440 506 21,700 1,250 Climbing Jacksonville Center
Wed 05:01:17 PM 28.6461 -82.5944 323° Northwest 462 532 22,800 1,150 Climbing Jacksonville Center
Wed 05:02:17 PM 28.7550 -82.6936 321° Northwest 477 549 24,000 1,250 Climbing Jacksonville Center
Wed 05:03:17 PM 28.8678 -82.7953 322° Northwest 498 573 25,300 1,550 Climbing Jacksonville Center
Wed 05:04:17 PM 28.9783 -82.8972 321° Northwest 513 590 27,100 1,600 Climbing Jacksonville Center
Wed 05:05:17 PM 29.0850 -82.9947 321° Northwest 513 590 28,500 1,300 Climbing Jacksonville Center
Wed 05:06:17 PM 29.1933 -83.0947 321° Northwest 503 579 29,700 1,400 Climbing Jacksonville Center
Wed 05:07:17 PM 29.3017 -83.1950 321° Northwest 503 579 31,300 1,550 Climbing Jacksonville Center
Wed 05:08:17 PM 29.4036 -83.2931 320° Northwest 498 573 32,800 1,650 Climbing Jacksonville Center
Wed 05:09:17 PM 29.4994 -83.3936 318° Northwest 480 552 34,600 1,033 Climbing Jacksonville Center
Wed 05:11:17 PM 29.6403 -83.6239 305° West 448 516 35,900 467 Climbing Jacksonville Center
Wed 05:12:17 PM 29.7106 -83.7414 305° West 443 510 36,000 50 Climbing Jacksonville Center
Wed 05:13:17 PM 29.7786 -83.8522 305° West 448 516 36,000  Level Jacksonville Center
Wed 05:14:17 PM 29.8506 -83.9678 306° West 448 516 36,000  Level Jacksonville Center
Wed 05:15:17 PM 29.9186 -84.0858 304° West 448 516 36,000  Level Jacksonville Center
Wed 05:16:17 PM 29.9803 -84.1897 304° West 443 510 36,000  Level Jacksonville Center
Wed 05:17:17 PM 30.0519 -84.3061 305° West 443 510 36,000  Level Jacksonville Center
Wed 05:18:17 PM 30.1217 -84.4247 304° West 443 510 36,000  Level Jacksonville Center
Wed 05:19:17 PM 30.1911 -84.5411 305° West 443 510 36,000  Level Jacksonville Center
Wed 05:20:17 PM 30.2625 -84.6603 305° West 449 517 36,000 -50 Level Jacksonville Center
Wed 05:21:17 PM 30.3319 -84.7842 303° West 449 517 35,900 -50 Descending Jacksonville Center
Wed 05:22:17 PM 30.4053 -84.9036 305° West 454 522 35,900 50 Level Jacksonville Center
Wed 05:23:17 PM 30.4742 -85.0256 303° West 454 522 36,000 50 Climbing Jacksonville Center
Wed 05:24:17 PM 30.5472 -85.1503 304° West 460 529 36,000  Level Jacksonville Center
Wed 05:25:17 PM 30.6181 -85.2703 304° West 460 529 36,000  Level Jacksonville Center
Wed 05:26:17 PM 30.6889 -85.3928 304° West 460 529 36,000  Level Jacksonville Center
Wed 05:27:17 PM 30.7594 -85.5156 304° West 460 529 36,000  Level Jacksonville Center
Wed 05:28:17 PM 30.8278 -85.6358 304° West 460 529 36,000  Level Jacksonville Center
Wed 05:29:17 PM 30.8981 -85.7589 304° West 460 529 36,000  Level Jacksonville Center
Wed 05:30:17 PM 30.9683 -85.8797 304° West 460 529 36,000  Level Jacksonville Center
Wed 05:31:17 PM 31.0386 -86.0056 303° West 460 529 36,000  Level Jacksonville Center
Wed 05:32:17 PM 31.1125 -86.1417 302° West 460 529 36,000  Level Jacksonville Center
Wed 05:33:17 PM 31.1761 -86.2556 303° West 460 529 36,000  Level Jacksonville Center
Wed 05:34:18 PM 31.2481 -86.3794 304° West 460 529 36,000  Level Jacksonville Center
Wed 05:35:18 PM 31.3217 -86.5111 303° West 466 536 36,000  Level Jacksonville Center
Wed 05:36:33 PM 31.4178 -86.6814 304° West 480 552 36,000  Level Atlanta Center
Wed 05:37:33 PM 31.4881 -86.8053 304° West 480 552 36,000  Level Atlanta Center
Wed 05:38:33 PM 31.5583 -86.9342 303° West 474 545 36,000  Level Atlanta Center
Wed 05:39:33 PM 31.6286 -87.0483 306° West 474 545 36,000  Level Atlanta Center
Wed 05:40:33 PM 31.7003 -87.1875 301° West 466 536 36,000  Level Atlanta Center
Wed 05:41:33 PM 31.7700 -87.3144 303° West 461 531 36,000  Level Atlanta Center
Wed 05:42:33 PM 31.8378 -87.4269 305° West 467 537 36,000  Level Atlanta Center
Wed 05:43:33 PM 31.9072 -87.5569 302° West 474 545 36,000  Level Atlanta Center
Wed 05:45:12 PM 32.0186 -87.7628 303° West 457 526 36,000  Level Memphis Center
Wed 05:46:12 PM 32.0881 -87.8908 303° West 452 520 36,000 250 Level Memphis Center
Wed 05:47:12 PM 32.1531 -88.0164 301° West 452 520 36,500 650 Climbing Memphis Center
Wed 05:48:12 PM 32.2219 -88.1400 303° West 452 520 37,300 700 Climbing Memphis Center
Wed 05:49:12 PM 32.2956 -88.2806 302° West 458 527 37,900 350 Climbing Memphis Center
Wed 05:50:12 PM 32.3622 -88.4069 302° West 458 527 38,000 50 Climbing Memphis Center
Wed 05:51:12 PM 32.4289 -88.5336 302° West 458 527 38,000  Level Memphis Center
Wed 05:52:12 PM 32.4889 -88.6383 304° West 451 519 38,000  Level Memphis Center
Wed 05:53:12 PM 32.5531 -88.7628 301° West 451 519 38,000  Level Memphis Center
Wed 05:54:12 PM 32.6194 -88.8872 302° West 451 519 38,000  Level Memphis Center
Wed 05:55:12 PM 32.6833 -89.0072 302° West 446 513 38,000  Level Memphis Center
Wed 05:56:12 PM 32.7472 -89.1322 301° West 440 506 38,000  Level Memphis Center
Wed 05:57:12 PM 32.8111 -89.2525 302° West 440 506 38,000  Level Memphis Center
Wed 05:58:12 PM 32.8831 -89.3875 302° West 440 506 38,000  Level Memphis Center
Wed 05:59:12 PM 32.9444 -89.5081 301° West 440 506 38,000  Level Memphis Center
Wed 06:00:11 PM 33.0100 -89.6264 303° West 440 506 38,000  Level Memphis Center
Wed 06:01:12 PM 33.0775 -89.7497 303° West 440 506 38,000  Level Memphis Center
Wed 06:02:11 PM 33.1386 -89.8758 300° West 440 506 38,000  Level Memphis Center
Wed 06:03:11 PM 33.1933 -89.9897 300° West 440 506 38,000  Level Memphis Center
Wed 06:04:12 PM 33.2542 -90.1114 301° West 440 506 38,000  Level Memphis Center
Wed 06:05:11 PM 33.3169 -90.2331 302° West 440 506 38,000  Level Memphis Center
Wed 06:06:11 PM 33.3775 -90.3547 301° West 440 506 38,000  Level Memphis Center
Wed 06:07:11 PM 33.4400 -90.4767 302° West 435 501 38,000  Level Memphis Center
Wed 06:08:11 PM 33.5006 -90.5989 301° West 435 501 38,000  Level Memphis Center
Wed 06:09:11 PM 33.5628 -90.7211 301° West 435 501 38,000  Level Memphis Center
Wed 06:10:12 PM 33.6250 -90.8436 301° West 429 494 38,000  Level Memphis Center
Wed 06:11:11 PM 33.6828 -90.9639 300° West 424 488 38,000  Level Memphis Center
Wed 06:12:11 PM 33.7450 -91.0842 302° West 424 488 38,000  Level Memphis Center
Wed 06:13:11 PM 33.8047 -91.2072 300° West 424 488 38,000  Level Memphis Center
Wed 06:14:11 PM 33.8622 -91.3253 300° West 424 488 38,000  Level Memphis Center
Wed 06:15:11 PM 33.9197 -91.4436 300° West 419 482 38,000  Level Memphis Center
Wed 06:16:11 PM 33.9811 -91.5647 301° West 419 482 38,000  Level Memphis Center
Wed 06:17:11 PM 34.0383 -91.6808 301° West 412 474 38,000  Level Memphis Center
Wed 06:18:11 PM 34.0978 -91.7944 302° West 412 474 38,000  Level Memphis Center
Wed 06:19:11 PM 34.1547 -91.9183 299° West 412 474 38,000  Level Memphis Center
Wed 06:20:11 PM 34.2117 -92.0375 300° West 412 474 38,000  Level Memphis Center
Wed 06:21:11 PM 34.2706 -92.1567 301° West 412 474 38,000  Level Memphis Center
Wed 06:22:11 PM 34.3269 -92.2761 300° West 412 474 38,000  Level Memphis Center
Wed 06:23:11 PM 34.3836 -92.3956 300° West 412 474 38,000  Level Memphis Center
Wed 06:24:11 PM 34.4422 -92.5153 301° West 412 474 38,000  Level Memphis Center
Wed 06:25:11 PM 34.4983 -92.6378 299° West 412 474 38,000  Level Memphis Center
Wed 06:26:11 PM 34.5586 -92.7606 301° West 412 474 38,000  Level Memphis Center
Wed 06:27:11 PM 34.6167 -92.8833 300° West 418 481 38,000  Level Memphis Center
Wed 06:28:12 PM 34.6728 -92.9986 301° West 418 481 38,000  Level Memphis Center
Wed 06:29:11 PM 34.7325 -93.1292 299° West 418 481 38,000  Level Memphis Center
Wed 06:30:11 PM 34.7861 -93.2472 299° West 413 475 38,000  Level Memphis Center
Wed 06:31:11 PM 34.8417 -93.3681 299° West 408 470 38,000  Level Memphis Center
Wed 06:32:11 PM 34.8953 -93.4839 299° West 403 464 38,000  Level Memphis Center
Wed 06:33:11 PM 34.9506 -93.6025 300° West 403 464 38,000  Level Memphis Center
Wed 06:34:11 PM 35.0019 -93.7136 299° West 394 453 38,000  Level Memphis Center
Wed 06:35:11 PM 35.0611 -93.8350 301° West 394 453 38,000  Level Memphis Center
Wed 06:36:11 PM 35.1061 -93.9461 296° West 388 447 38,000  Level Memphis Center
Wed 06:37:11 PM 35.1631 -94.0653 300° West 388 447 38,000  Level Memphis Center
Wed 06:38:11 PM 35.2178 -94.1847 299° West 395 455 38,000  Level Memphis Center
Wed 06:39:11 PM 35.2725 -94.3017 300° West 395 455 38,000  Level Memphis Center
Wed 06:40:11 PM 35.3250 -94.4211 298° West 400 460 38,000  Level Memphis Center
Wed 06:41:11 PM 35.3714 -94.5303 298° West 400 460 38,000  Level Memphis Center
Wed 06:42:43 PM 35.4597 -94.7186 300° West 398 458 38,000  Level Kansas City Center
Wed 06:43:45 PM 35.5122 -94.8369 299° West 395 455 38,000  Level Kansas City Center
Wed 06:44:47 PM 35.5642 -94.9547 298° West 391 450 38,000  Level Kansas City Center
Wed 06:45:48 PM 35.6172 -95.0728 299° West 392 451 38,000  Level Kansas City Center
Wed 06:46:50 PM 35.6706 -95.1875 300° West 387 445 38,000  Level Kansas City Center
Wed 06:47:52 PM 35.7211 -95.3056 298° West 387 445 38,000  Level Kansas City Center
Wed 06:48:54 PM 35.7736 -95.4222 299° West 387 445 38,000  Level Kansas City Center
Wed 06:49:56 PM 35.8342 -95.5619 298° West 384 442 38,000  Level Kansas City Center
Wed 06:50:57 PM 35.8844 -95.6792 298° West 384 442 38,000  Level Kansas City Center
Wed 06:51:59 PM 35.9361 -95.7969 298° West 386 444 38,000  Level Kansas City Center
Wed 06:53:01 PM 35.9883 -95.9161 298° West 390 449 38,000  Level Kansas City Center
Wed 06:54:03 PM 36.0397 -96.0375 298° West 394 453 38,000  Level Kansas City Center
Wed 06:55:05 PM 36.0939 -96.1606 299° West 401 461 38,000  Level Kansas City Center
Wed 06:56:06 PM 36.1469 -96.2833 298° West 403 464 38,000  Level Kansas City Center
Wed 06:57:08 PM 36.1986 -96.4058 298° West 402 463 38,000  Level Kansas City Center
Wed 06:58:10 PM 36.2514 -96.5292 298° West 402 463 38,000  Level Kansas City Center
Wed 06:59:12 PM 36.3150 -96.6767 298° West 403 464 38,000  Level Kansas City Center
Wed 07:00:14 PM 36.3678 -96.8025 298° West 406 467 38,000  Level Kansas City Center
Wed 07:01:16 PM 36.4189 -96.9247 297° West 405 466 38,000  Level Kansas City Center
Wed 07:02:18 PM 36.4708 -97.0492 297° West 405 466 38,000  Level Kansas City Center
Wed 07:03:19 PM 36.5211 -97.1700 297° West 399 459 38,000  Level Kansas City Center
Wed 07:04:21 PM 36.5711 -97.2906 297° West 395 455 38,000  Level Kansas City Center
Wed 07:05:23 PM 36.6289 -97.4311 297° West 394 453 38,000  Level Kansas City Center
Wed 07:06:25 PM 36.6794 -97.5533 297° West 395 455 38,000  Level Kansas City Center
Wed 07:07:27 PM 36.7300 -97.6772 297° West 398 458 38,000  Level Kansas City Center
Wed 07:08:29 PM 36.7844 -97.8108 297° West 400 460 38,000  Level Kansas City Center
Wed 07:09:31 PM 36.8311 -97.9261 297° West 400 460 38,000  Level Kansas City Center
Wed 07:10:33 PM 36.8811 -98.0503 297° West 401 461 38,000  Level Kansas City Center
Wed 07:11:35 PM 36.9331 -98.1775 297° West 405 466 38,000  Level Kansas City Center
Wed 07:12:36 PM 36.9833 -98.3047 296° West 407 468 38,000  Level Kansas City Center
Wed 07:13:38 PM 37.0378 -98.4394 297° West 408 470 38,000  Level Kansas City Center
Wed 07:14:40 PM 37.0953 -98.5858 296° West 408 470 38,000  Level Kansas City Center
Wed 07:15:42 PM 37.1461 -98.7133 297° West 408 470 38,000  Level Kansas City Center
Wed 07:16:44 PM 37.1961 -98.8397 296° West 406 467 38,000  Level Kansas City Center
Wed 07:17:46 PM 37.2456 -98.9669 296° West 406 467 38,000  Level Kansas City Center
Wed 07:18:48 PM 37.2964 -99.0961 296° West 408 470 38,000  Level Kansas City Center
Wed 07:19:50 PM 37.3439 -99.2217 295° West 402 463 38,000  Level Kansas City Center
Wed 07:20:52 PM 37.4025 -99.3722 296° West 400 460 38,000  Level Kansas City Center
Wed 07:21:54 PM 37.4528 -99.4992 297° West 397 457 38,000  Level Kansas City Center
Wed 07:22:56 PM 37.4986 -99.6150 297° West 390 449 38,000  Level Kansas City Center
Wed 07:23:58 PM 37.5503 -99.7500 296° West 383 441 38,000  Level Kansas City Center
Wed 07:24:59 PM 37.5944 -99.8667 296° West 386 444 38,000  Level Kansas City Center
Wed 07:26:01 PM 37.6458 -99.9997 296° West 382 440 38,000  Level Kansas City Center
Wed 07:27:03 PM 37.6892 -100.1117 296° West 375 432 38,000  Level Kansas City Center
Wed 07:28:05 PM 37.7375 -100.2403 295° West 367 422 38,000  Level Kansas City Center
Wed 07:29:07 PM 37.7797 -100.3511 296° West 366 421 38,000  Level Kansas City Center
Wed 07:30:09 PM 37.8286 -100.4833 295° West 371 427 38,000  Level Kansas City Center
Wed 07:31:11 PM 37.8706 -100.5956 295° West 372 428 38,000  Level Kansas City Center
Wed 07:32:13 PM 37.9192 -100.7264 295° West 372 428 38,000  Level Kansas City Center
Wed 07:33:15 PM 37.9633 -100.8389 296° West 375 432 38,000  Level Kansas City Center
Wed 07:34:17 PM 38.0136 -100.9692 296° West 372 428 38,000  Level Kansas City Center
Wed 07:35:19 PM 38.0569 -101.0822 296° West 374 430 38,000  Level Kansas City Center
Wed 07:36:20 PM 38.1061 -101.2144 295° West 373 429 38,000  Level Kansas City Center
Wed 07:37:22 PM 38.1483 -101.3253 296° West 368 423 38,000  Level Kansas City Center
Wed 07:38:25 PM 38.1900 -101.4350 296° West 364 419 38,000 -432 Level Denver Center
Wed 07:39:27 PM 38.2511 -101.5594 302° West 370 426 37,100 -871 Descending Denver Center
Wed 07:40:29 PM 38.3050 -101.6669 303° West 376 433 36,200 -532 Descending Denver Center
Wed 07:41:31 PM 38.3689 -101.7947 303° West 382 440 36,000 -97 Descending Denver Center
Wed 07:42:33 PM 38.4233 -101.9053 302° West 384 442 36,000  Level Denver Center
Wed 07:43:35 PM 38.4869 -102.0364 302° West 389 448 36,000  Level Denver Center
Wed 07:44:37 PM 38.5428 -102.1467 303° West 388 447 36,000  Level Denver Center
Wed 07:45:39 PM 38.6078 -102.2786 302° West 392 451 36,000  Level Denver Center
Wed 07:46:41 PM 38.6639 -102.3928 302° West 396 456 36,000  Level Denver Center
Wed 07:47:43 PM 38.7275 -102.5292 301° West 399 459 36,000  Level Denver Center
Wed 07:48:45 PM 38.7850 -102.6444 303° West 400 460 36,000  Level Denver Center
Wed 07:49:47 PM 38.8469 -102.7703 302° West 404 465 36,000 -435 Level Denver Center
Wed 07:50:49 PM 38.9039 -102.8925 301° West 401 461 35,100 -919 Descending Denver Center
Wed 07:51:51 PM 38.9592 -103.0078 302° West 386 444 34,100 -1,306 Descending Denver Center
Wed 07:52:53 PM 39.0219 -103.1425 301° West 369 425 32,400 -1,694 Descending Denver Center
Wed 07:53:55 PM 39.0756 -103.2500 303° West 362 417 30,600 -1,935 Descending Denver Center
Wed 07:54:57 PM 39.1256 -103.3583 301° West 355 409 28,400 -2,064 Descending Denver Center
Wed 07:56:00 PM 39.1750 -103.4619 302° West 345 397 26,300 -2,016 Descending Denver Center
Wed 07:57:02 PM 39.2217 -103.5622 301° West 329 379 24,200 -1,935 Descending Denver Center
Wed 07:58:04 PM 39.2675 -103.6589 302° West 318 366 22,300 -2,032 Descending Denver Center
Wed 07:59:06 PM 39.3186 -103.7700 301° West 304 350 20,000 -1,984 Descending Denver Center
Wed 08:00:08 PM 39.3597 -103.8600 301° West 294 338 18,200 -1,113 Descending Denver Center
Wed 08:01:10 PM 39.3997 -103.9525 299° West 288 331 17,700 -1,016 Descending Denver Center
Wed 08:02:12 PM 39.4011 -104.0517 271° West 277 319 16,100 -1,548 Descending Denver Center
Wed 08:03:14 PM 39.4064 -104.1578 274° West 274 315 14,500 -1,258 Descending Denver Center
Wed 08:04:16 PM 39.4103 -104.2575 273° West 277 319 13,500 -919 Descending Denver Center
Wed 08:05:18 PM 39.4419 -104.3425 296° West 246 283 12,600 -1,161 Descending Denver Center
Wed 08:06:20 PM 39.4717 -104.4097 300° West 219 252 11,100 -1,258 Descending Denver Center
Wed 08:07:22 PM 39.5033 -104.4831 299° West 217 250 10,000 -677 Descending Denver Center
Wed 08:08:24 PM 39.5347 -104.5494 302° West 218 251 9,700 -1,161 Descending Denver Center
Wed 08:09:26 PM 39.5978 -104.5786 340° North 227 261 7,600 -1,161 Descending Denver Center
Wed 08:10:28 PM 39.6544 -104.6103 337° Northwest 221 254 7,300 -145 Descending Denver Center
Wed 08:11:30 PM 39.7078 -104.6378 338° Northwest 212 244 7,300 -290 Level Denver Center
Wed 08:12:32 PM 39.7622 -104.6425 356° North 184 212 6,700 -672 Descending Denver Center
Wed 08:13:35 PM 39.8064 -104.6422 360° North 164 189 5,900 -672 Descending Denver Center
Wed 08:14:37 PM 39.8469 -104.6411 North 159 183 5,300 -581 Descending Denver Center

Login

Don't have an account? Register now (free) for customized features, flight alerts, and more!